Time;durP1;ratioP1;P1;durP2;ratioP2;P2;SDS_P1;SDS_P2;PMS_P1;PMS_P2;Temp;Humidity;BMP_temperature;BMP_pressure;BME280_temperature;BME280_humidity;BME280_pressure;Samples;Min_cycle;Max_cycle;Signal;HPM_P1;HPM_P2
2022/03/21 00:02:34;;;;;;;3.05;2.40;;;19.50;45.30;;;;;;6192419;28;20386;-70
2022/03/21 00:05:34;;;;;;;3.97;2.55;;;19.50;45.30;;;;;;6193718;28;20041;-70
2022/03/21 00:08:35;;;;;;;5.13;2.95;;;19.50;45.30;;;;;;6193719;28;20054;-70
2022/03/21 00:11:35;;;;;;;2.85;2.10;;;19.50;45.30;;;;;;6193525;28;20037;-70
2022/03/21 00:14:36;;;;;;;4.07;2.65;;;19.50;45.20;;;;;;6193643;28;20030;-70
2022/03/21 00:17:40;;;;;;;3.92;2.67;;;19.50;45.30;;;;;;6194294;28;20104;-70
2022/03/21 00:20:42;;;;;;;4.53;2.67;;;19.50;45.30;;;;;;6194425;28;20026;-70
2022/03/21 00:23:43;;;;;;;4.45;3.10;;;19.50;45.30;;;;;;6193359;28;20038;-70
2022/03/21 00:26:43;;;;;;;4.10;2.70;;;19.50;45.30;;;;;;6193645;28;20054;-70
2022/03/21 00:29:44;;;;;;;4.75;3.08;;;19.50;45.30;;;;;;6193046;28;20085;-70
2022/03/21 00:32:44;;;;;;;3.75;2.70;;;19.50;45.20;;;;;;6194079;28;20044;-70
2022/03/21 00:35:48;;;;;;;4.32;2.45;;;19.50;45.30;;;;;;6193395;28;20045;-70
2022/03/21 00:38:48;;;;;;;3.35;2.17;;;19.50;45.30;;;;;;6193793;28;20034;-70
2022/03/21 00:41:51;;;;;;;4.57;2.53;;;19.50;45.30;;;;;;6193256;28;20042;-70
2022/03/21 00:44:52;;;;;;;3.47;2.60;;;19.60;45.40;;;;;;6193496;28;20508;-70
2022/03/21 00:47:54;;;;;;;4.82;3.05;;;19.50;45.30;;;;;;6193068;28;20413;-70
2022/03/21 00:50:56;;;;;;;5.15;2.90;;;19.60;45.50;;;;;;6195110;28;20041;-70
2022/03/21 00:53:56;;;;;;;3.05;2.20;;;19.50;45.30;;;;;;6197863;28;20604;-70
2022/03/21 00:56:57;;;;;;;4.10;2.70;;;19.50;45.40;;;;;;6197643;28;20026;-70
2022/03/21 00:59:57;;;;;;;3.40;2.42;;;19.50;45.30;;;;;;6197524;28;20037;-70
2022/03/21 01:02:59;;;;;;;4.85;2.80;;;19.50;45.30;;;;;;6197668;28;20038;-70
2022/03/21 01:06:00;;;;;;;4.47;2.90;;;19.50;45.30;;;;;;6197579;28;20123;-70
2022/03/21 01:09:00;;;;;;;3.92;2.67;;;19.50;45.40;;;;;;6197520;28;20054;-70
2022/03/21 01:12:03;;;;;;;4.15;2.40;;;19.50;45.40;;;;;;6197225;28;20402;-70
2022/03/21 01:15:04;;;;;;;4.70;2.65;;;19.50;46.10;;;;;;6197918;28;20424;-70
2022/03/21 01:18:05;;;;;;;4.00;2.47;;;19.50;45.30;;;;;;6197000;28;20560;-70
2022/03/21 01:21:06;;;;;;;3.72;2.38;;;19.50;45.40;;;;;;6198055;28;20053;-70
2022/03/21 01:24:06;;;;;;;3.95;2.33;;;19.50;45.40;;;;;;6196931;28;20080;-70
2022/03/21 01:27:08;;;;;;;4.93;2.65;;;19.50;45.40;;;;;;6196935;28;20050;-70
2022/03/21 01:30:11;;;;;;;4.30;2.67;;;19.50;45.30;;;;;;6196466;28;20041;-70
2022/03/21 01:33:11;;;;;;;2.92;2.33;;;19.50;45.30;;;;;;6197288;28;20033;-70
2022/03/21 01:36:12;;;;;;;3.80;2.50;;;19.50;45.30;;;;;;6196535;28;20030;-70
2022/03/21 01:39:12;;;;;;;3.67;2.40;;;19.60;45.50;;;;;;6196806;28;20446;-70
2022/03/21 01:42:14;;;;;;;3.65;2.50;;;19.50;45.40;;;;;;6196628;28;20031;-70
2022/03/21 01:45:16;;;;;;;3.60;2.42;;;19.50;45.40;;;;;;6196937;28;20402;-70
2022/03/21 01:48:17;;;;;;;3.90;2.70;;;19.50;45.30;;;;;;6196775;28;20031;-70
2022/03/21 01:51:17;;;;;;;3.70;2.50;;;19.60;45.50;;;;;;6196508;28;20022;-70
2022/03/21 01:57:37;;;;;;;3.80;2.53;;;19.50;45.30;;;;;;6196597;28;20120;-70
2022/03/21 02:00:37;;;;;;;2.92;2.25;;;19.50;45.30;;;;;;6196381;28;20045;-70
2022/03/21 02:03:38;;;;;;;4.90;2.80;;;19.50;45.30;;;;;;6195175;28;20319;-70
2022/03/21 02:06:41;;;;;;;3.70;2.35;;;19.50;45.30;;;;;;6196195;28;20030;-69
2022/03/21 02:09:42;;;;;;;3.20;2.40;;;19.50;45.30;;;;;;6196094;28;20046;-69
2022/03/21 02:12:43;;;;;;;4.43;2.60;;;19.50;45.20;;;;;;6196222;28;20026;-69
2022/03/21 02:15:43;;;;;;;3.90;2.63;;;19.50;45.30;;;;;;6196022;28;20393;-69
2022/03/21 02:18:45;;;;;;;3.83;2.33;;;19.50;45.30;;;;;;6195914;28;20381;-69
2022/03/21 02:22:19;;;;;;;4.03;2.33;;;19.50;45.30;;;;;;6195326;28;20418;-69
2022/03/21 02:25:32;;;;;;;3.95;2.22;;;19.50;45.20;;;;;;6194781;28;20413;-69
2022/03/21 02:28:33;;;;;;;3.72;2.30;;;19.50;45.30;;;;;;6193936;28;20054;-69
2022/03/21 02:31:34;;;;;;;3.38;2.25;;;19.50;45.30;;;;;;6196262;28;20065;-69
2022/03/21 02:34:39;;;;;;;3.00;2.20;;;19.50;45.40;;;;;;6195777;28;20030;-69
2022/03/21 02:37:43;;;;;;;3.20;2.17;;;19.50;45.40;;;;;;6195620;28;20027;-69
2022/03/21 02:40:43;;;;;;;3.53;2.50;;;19.50;45.20;;;;;;6195463;28;20118;-69
2022/03/21 02:43:56;;;;;;;3.65;2.30;;;19.50;45.30;;;;;;6195195;28;20386;-69
2022/03/21 02:46:56;;;;;;;3.08;2.15;;;19.50;45.40;;;;;;6194994;28;20053;-69
2022/03/21 02:49:59;;;;;;;5.55;2.72;;;19.50;45.30;;;;;;6195309;28;20034;-69
2022/03/21 02:53:01;;;;;;;4.43;2.78;;;19.50;45.40;;;;;;6195236;28;20038;-69
2022/03/21 02:56:02;;;;;;;3.42;2.70;;;19.50;45.20;;;;;;6195778;28;20062;-69
2022/03/21 02:59:03;;;;;;;3.75;2.72;;;19.50;45.20;;;;;;6194828;28;20028;-69
2022/03/21 03:02:05;;;;;;;3.88;2.70;;;19.50;45.30;;;;;;6194876;28;20026;-69
2022/03/21 03:05:07;;;;;;;3.83;2.42;;;19.50;45.20;;;;;;6194854;28;20029;-69
2022/03/21 03:08:07;;;;;;;3.28;2.22;;;19.50;45.20;;;;;;6194601;28;20100;-69
2022/03/21 03:11:08;;;;;;;3.63;2.45;;;19.50;45.10;;;;;;6194492;28;20035;-69
2022/03/21 03:14:09;;;;;;;3.17;1.95;;;19.50;45.40;;;;;;6194987;28;20033;-69
2022/03/21 03:17:09;;;;;;;3.70;2.60;;;19.50;45.20;;;;;;6193400;28;20029;-69
2022/03/21 03:20:10;;;;;;;3.35;2.53;;;19.50;45.10;;;;;;6194491;28;20437;-69
2022/03/21 03:23:11;;;;;;;3.55;2.67;;;19.50;45.10;;;;;;6194231;28;20030;-69
2022/03/21 03:26:11;;;;;;;2.90;2.28;;;19.50;45.10;;;;;;6194427;28;20087;-69
2022/03/21 03:29:12;;;;;;;3.42;2.28;;;19.50;45.20;;;;;;6193965;28;20113;-69
2022/03/21 03:32:13;;;;;;;2.80;1.98;;;19.50;45.10;;;;;;6194470;28;20389;-69
2022/03/21 03:35:14;;;;;;;3.42;2.33;;;19.50;45.10;;;;;;6194619;28;20434;-69
2022/03/21 03:38:18;;;;;;;3.03;2.10;;;19.50;45.10;;;;;;6194537;28;20035;-68
2022/03/21 03:41:19;;;;;;;2.80;2.22;;;19.50;45.20;;;;;;6194221;28;20030;-69
2022/03/21 03:44:20;;;;;;;3.60;2.35;;;19.50;45.10;;;;;;6193759;28;20104;-69
2022/03/21 03:47:20;;;;;;;2.80;2.00;;;19.50;45.00;;;;;;6193941;28;20417;-69
2022/03/21 03:50:21;;;;;;;2.85;2.20;;;19.50;45.10;;;;;;6193809;28;20030;-69
2022/03/21 03:53:22;;;;;;;3.80;2.45;;;19.50;45.10;;;;;;6194045;28;20029;-69
2022/03/21 03:56:22;;;;;;;3.40;2.47;;;19.50;45.20;;;;;;6194201;28;20421;-69
2022/03/21 03:59:23;;;;;;;3.63;2.53;;;19.50;45.10;;;;;;6194054;28;20038;-69
2022/03/21 04:02:23;;;;;;;4.00;2.50;;;19.50;45.10;;;;;;6193574;28;20042;-69
2022/03/21 04:05:24;;;;;;;3.15;2.22;;;19.50;45.10;;;;;;6194441;28;20500;-69
2022/03/21 04:08:25;;;;;;;3.30;2.20;;;19.50;45.10;;;;;;6193571;28;20497;-69
2022/03/21 04:11:26;;;;;;;3.17;2.10;;;19.50;45.10;;;;;;6193924;28;20030;-69
2022/03/21 04:14:26;;;;;;;6.03;2.50;;;19.50;45.10;;;;;;6193332;28;20081;-69
2022/03/21 04:17:27;;;;;;;2.95;2.30;;;19.50;45.10;;;;;;6194031;28;20033;-69
2022/03/21 04:20:31;;;;;;;2.92;2.28;;;19.50;45.10;;;;;;6193031;28;20036;-69
2022/03/21 04:23:31;;;;;;;2.78;2.05;;;19.50;45.10;;;;;;6193748;28;20641;-69
2022/03/21 04:26:32;;;;;;;3.40;2.17;;;19.50;45.10;;;;;;6196023;28;20051;-69
2022/03/21 04:29:33;;;;;;;3.35;2.50;;;19.50;45.10;;;;;;6198137;28;20482;-69
2022/03/21 04:32:34;;;;;;;3.28;2.25;;;19.50;45.10;;;;;;6198113;28;20085;-69
2022/03/21 04:35:36;;;;;;;2.95;2.22;;;19.50;45.10;;;;;;6198777;28;20037;-68
2022/03/21 04:38:36;;;;;;;2.92;2.10;;;19.50;45.10;;;;;;6202119;28;20035;-69
2022/03/21 04:41:37;;;;;;;3.88;2.40;;;19.50;45.10;;;;;;6197979;28;20130;-69
2022/03/21 04:44:39;;;;;;;3.20;2.20;;;19.50;45.10;;;;;;6198159;28;20053;-69
2022/03/21 04:47:40;;;;;;;3.58;2.40;;;19.50;45.10;;;;;;6198122;28;20027;-69
2022/03/21 04:50:41;;;;;;;3.15;2.38;;;19.50;45.10;;;;;;6197595;28;20088;-69
2022/03/21 04:53:41;;;;;;;3.40;2.38;;;19.50;45.10;;;;;;6197889;28;20150;-69
2022/03/21 04:56:42;;;;;;;4.05;2.70;;;19.50;45.10;;;;;;6197957;28;20482;-69
2022/03/21 05:00:33;;;;;;;4.15;2.70;;;19.50;45.10;;;;;;6198037;28;20026;-69
2022/03/21 05:03:33;;;;;;;3.38;2.47;;;19.50;45.10;;;;;;6197297;28;20497;-69
2022/03/21 05:06:34;;;;;;;3.63;2.35;;;19.50;45.10;;;;;;6197761;28;20109;-69
2022/03/21 05:09:35;;;;;;;4.05;2.60;;;19.50;45.10;;;;;;6197314;28;20022;-69
2022/03/21 05:12:37;;;;;;;3.45;2.30;;;19.50;45.10;;;;;;6197623;28;20421;-69
2022/03/21 05:15:37;;;;;;;3.40;2.40;;;19.50;45.10;;;;;;6197338;28;20039;-69
2022/03/21 05:18:39;;;;;;;3.55;2.67;;;19.50;45.00;;;;;;6197525;28;20149;-69
2022/03/21 05:21:40;;;;;;;5.53;2.33;;;19.50;45.00;;;;;;6196903;28;20030;-69
2022/03/21 05:31:19;;;;;;;3.90;2.67;;;19.50;44.90;;;;;;6196887;28;20048;-69
2022/03/21 05:37:38;;;;;;;3.55;2.40;;;19.50;44.90;;;;;;6196157;28;20030;-69
2022/03/21 05:40:41;;;;;;;4.10;2.67;;;19.50;44.90;;;;;;6196722;28;20026;-69
2022/03/21 05:43:41;;;;;;;3.97;2.53;;;19.50;44.80;;;;;;6196347;28;20065;-69
2022/03/21 05:46:42;;;;;;;3.58;2.47;;;19.50;44.80;;;;;;6196968;28;20098;-69
2022/03/21 05:49:42;;;;;;;4.00;2.47;;;19.50;44.80;;;;;;6196334;28;20023;-69
2022/03/21 05:52:43;;;;;;;3.70;2.40;;;19.50;44.80;;;;;;6196458;28;20073;-69
2022/03/21 05:55:45;;;;;;;4.97;2.88;;;19.50;44.80;;;;;;6196662;28;20026;-69
2022/03/21 05:58:46;;;;;;;4.43;2.80;;;19.50;44.90;;;;;;6196557;28;20034;-69
2022/03/21 06:01:47;;;;;;;4.03;2.50;;;19.50;44.80;;;;;;6188387;28;20050;-69
2022/03/21 06:04:48;;;;;;;3.60;2.53;;;19.50;44.80;;;;;;6172674;28;20027;-69
2022/03/21 06:07:49;;;;;;;5.05;2.70;;;19.50;44.80;;;;;;6172639;28;20581;-69
2022/03/21 06:11:03;;;;;;;3.83;2.78;;;19.50;44.80;;;;;;6171985;28;20028;-69
2022/03/21 06:14:04;;;;;;;4.75;2.83;;;19.50;44.70;;;;;;6172180;28;20034;-68
2022/03/21 06:17:05;;;;;;;3.97;2.60;;;19.60;44.90;;;;;;6172240;28;20023;-69
2022/03/21 06:20:11;;;;;;;3.92;2.72;;;19.50;44.80;;;;;;6171551;28;20034;-69
2022/03/21 06:23:12;;;;;;;3.60;2.40;;;19.50;45.50;;;;;;6172847;28;20117;-69
2022/03/21 06:26:12;;;;;;;3.38;2.70;;;19.50;44.80;;;;;;6195023;28;20467;-69
2022/03/21 06:29:13;;;;;;;3.97;2.50;;;19.60;44.80;;;;;;6195568;28;20475;-69
2022/03/21 06:32:14;;;;;;;3.90;2.78;;;19.60;44.90;;;;;;6195367;28;20545;-69
2022/03/21 06:35:14;;;;;;;4.28;2.55;;;19.60;44.90;;;;;;6195786;28;20105;-69
2022/03/21 06:38:15;;;;;;;3.22;2.40;;;19.60;44.80;;;;;;6199641;28;20385;-69
2022/03/21 06:41:16;;;;;;;3.50;2.55;;;19.60;44.80;;;;;;6195620;28;20085;-69
2022/03/21 06:44:16;;;;;;;4.32;2.80;;;19.60;44.80;;;;;;6195336;28;20041;-69
2022/03/21 06:47:17;;;;;;;3.83;2.63;;;19.60;44.90;;;;;;6195427;28;20029;-69
2022/03/21 06:50:18;;;;;;;4.13;2.80;;;19.50;45.00;;;;;;6194999;28;20027;-69
2022/03/21 06:53:19;;;;;;;4.43;2.80;;;19.60;44.90;;;;;;6193879;28;20034;-69
2022/03/21 06:56:20;;;;;;;4.00;2.58;;;19.60;44.60;;;;;;6194852;28;20134;-69
2022/03/21 06:59:20;;;;;;;3.70;2.67;;;19.60;44.60;;;;;;6194122;28;20027;-69
2022/03/21 07:02:23;;;;;;;3.53;2.50;;;19.60;44.60;;;;;;6203744;28;20496;-69
2022/03/21 07:05:26;;;;;;;4.03;2.90;;;19.60;44.60;;;;;;6202865;28;20122;-68
2022/03/21 07:08:26;;;;;;;3.80;2.42;;;19.60;44.60;;;;;;6205551;28;20029;-69
2022/03/21 07:11:29;;;;;;;4.97;2.97;;;19.60;44.60;;;;;;6221567;28;20033;-69
2022/03/21 07:14:29;;;;;;;4.60;2.90;;;19.60;44.60;;;;;;6220769;28;20029;-69
2022/03/21 07:17:30;;;;;;;3.80;2.75;;;19.60;44.60;;;;;;6221271;28;20437;-69
2022/03/21 07:20:30;;;;;;;5.97;2.47;;;19.60;44.60;;;;;;6220802;28;20029;-69
2022/03/21 07:23:31;;;;;;;4.45;2.92;;;19.60;44.70;;;;;;6221052;28;20112;-69
2022/03/21 07:26:32;;;;;;;4.85;3.15;;;19.60;44.70;;;;;;6220110;28;20061;-69
2022/03/21 07:29:33;;;;;;;7.65;3.17;;;19.60;44.60;;;;;;6180667;28;20054;-69
2022/03/21 07:32:33;;;;;;;5.97;2.95;;;19.60;44.80;;;;;;6196157;28;20026;-69
2022/03/21 07:35:35;;;;;;;10.30;3.53;;;19.60;44.80;;;;;;6196583;28;20058;-68
2022/03/21 07:38:36;;;;;;;7.82;2.88;;;19.60;44.90;;;;;;6192379;28;20029;-69
2022/03/21 07:41:36;;;;;;;8.70;3.08;;;19.60;44.90;;;;;;6194557;28;20034;-69
2022/03/21 07:47:56;;;;;;;16.90;4.47;;;19.50;45.30;;;;;;6189455;28;20126;-69
2022/03/21 07:50:57;;;;;;;36.10;6.07;;;19.40;45.10;;;;;;6194576;28;20041;-68
2022/03/21 07:53:58;;;;;;;49.78;7.90;;;19.40;44.80;;;;;;6194232;28;20057;-69
2022/03/21 07:56:58;;;;;;;26.27;7.55;;;19.30;43.90;;;;;;6194208;28;20026;-69
2022/03/21 07:59:59;;;;;;;30.13;7.80;;;19.30;43.10;;;;;;6191880;28;20031;-69
2022/03/21 08:02:59;;;;;;;25.40;7.53;;;19.20;42.20;;;;;;6191400;28;20038;-69
2022/03/21 08:06:02;;;;;;;26.33;7.93;;;19.20;42.00;;;;;;6194504;28;20042;-69
2022/03/21 08:09:02;;;;;;;25.63;8.27;;;19.20;40.70;;;;;;6194283;28;20034;-68
2022/03/21 08:12:03;;;;;;;23.50;8.52;;;19.20;39.80;;;;;;6194485;28;20025;-69
2022/03/21 08:15:04;;;;;;;26.95;8.45;;;19.20;40.90;;;;;;6194651;28;20457;-68
2022/03/21 08:18:05;;;;;;;19.23;8.38;;;19.10;40.40;;;;;;6194251;28;20026;-68
2022/03/21 08:21:05;;;;;;;24.30;8.07;;;19.10;40.20;;;;;;6194459;28;20022;-68
2022/03/21 08:24:06;;;;;;;23.65;8.68;;;19.10;40.00;;;;;;6194067;28;20414;-68
2022/03/21 08:27:07;;;;;;;17.55;7.88;;;19.10;39.60;;;;;;6194056;28;20057;-68
2022/03/21 08:30:08;;;;;;;19.63;8.02;;;19.00;39.60;;;;;;6193958;28;20026;-68
2022/03/21 08:33:10;;;;;;;20.55;8.02;;;19.00;39.30;;;;;;6194298;28;20034;-68
2022/03/21 08:36:12;;;;;;;20.88;7.65;;;19.00;39.10;;;;;;6215312;28;20034;-68
2022/03/21 08:39:13;;;;;;;19.60;8.82;;;19.00;38.70;;;;;;6218290;28;20034;-68
2022/03/21 08:42:13;;;;;;;17.48;8.50;;;19.00;35.70;;;;;;6196268;28;20027;-68
2022/03/21 08:45:15;;;;;;;16.23;8.00;;;19.10;35.80;;;;;;6193986;28;20023;-68
2022/03/21 08:48:16;;;;;;;18.95;7.80;;;19.20;34.80;;;;;;6193302;28;20029;-68
2022/03/21 08:51:18;;;;;;;20.58;8.15;;;19.20;35.10;;;;;;6193082;28;20117;-68
2022/03/21 08:54:19;;;;;;;19.83;8.35;;;19.20;35.80;;;;;;6193848;28;20022;-68
2022/03/21 08:57:20;;;;;;;15.90;7.38;;;19.20;36.30;;;;;;6194061;28;20390;-68
2022/03/21 09:00:21;;;;;;;15.65;7.03;;;19.30;36.90;;;;;;6193467;28;20049;-68
2022/03/21 09:03:21;;;;;;;14.45;6.47;;;19.30;37.10;;;;;;6191425;28;20505;-68
2022/03/21 09:06:22;;;;;;;14.35;6.38;;;19.30;37.40;;;;;;6193617;28;20488;-68
2022/03/21 09:09:22;;;;;;;11.25;6.20;;;19.30;37.70;;;;;;6193517;28;20023;-68
2022/03/21 09:12:23;;;;;;;15.23;6.78;;;19.30;37.90;;;;;;6191841;28;20088;-68
2022/03/21 09:15:25;;;;;;;15.95;6.40;;;19.30;38.10;;;;;;6206348;28;20350;-68
2022/03/21 09:18:26;;;;;;;15.40;7.20;;;19.30;38.40;;;;;;6205851;28;20094;-68
2022/03/21 09:21:27;;;;;;;12.23;5.97;;;19.30;38.60;;;;;;6198065;28;20056;-68
2022/03/21 09:24:28;;;;;;;11.98;6.05;;;19.30;38.80;;;;;;6177525;28;20093;-68
2022/03/21 09:27:28;;;;;;;11.82;6.18;;;19.30;39.00;;;;;;6173460;28;20046;-68
2022/03/21 09:30:29;;;;;;;12.98;5.90;;;19.30;39.80;;;;;;6191575;28;20066;-68
2022/03/21 09:33:29;;;;;;;13.57;6.00;;;19.30;39.20;;;;;;6197678;28;20073;-69
2022/03/21 09:36:30;;;;;;;13.35;6.28;;;19.30;39.30;;;;;;6192588;28;20491;-68
2022/03/21 09:39:31;;;;;;;12.75;5.85;;;19.30;39.50;;;;;;6221530;28;20032;-68
2022/03/21 09:42:31;;;;;;;12.90;5.88;;;19.40;39.70;;;;;;6205513;28;20042;-68
2022/03/21 09:45:32;;;;;;;13.25;5.57;;;19.40;39.80;;;;;;6197388;28;20486;-68
2022/03/21 09:48:34;;;;;;;11.18;5.70;;;19.30;39.90;;;;;;6197035;28;20027;-68
2022/03/21 09:51:34;;;;;;;12.20;5.85;;;19.30;39.90;;;;;;6197501;28;20057;-68
2022/03/21 09:54:35;;;;;;;9.38;4.93;;;19.30;40.00;;;;;;6197704;28;20019;-68
2022/03/21 09:57:36;;;;;;;8.93;4.82;;;19.40;40.10;;;;;;6196437;28;20038;-68
2022/03/21 10:00:39;;;;;;;10.85;5.10;;;19.40;40.20;;;;;;6191178;28;20097;-68
2022/03/21 10:03:41;;;;;;;16.08;6.03;;;19.40;40.30;;;;;;6196675;28;20030;-68
2022/03/21 10:06:43;;;;;;;12.30;5.60;;;19.40;40.30;;;;;;6197109;28;20512;-68
2022/03/21 10:10:08;;;;;;;8.63;4.78;;;19.30;40.40;;;;;;6188284;28;20034;-67
2022/03/21 10:13:11;;;;;;;9.85;5.20;;;19.40;40.40;;;;;;6205210;28;20466;-68
2022/03/21 10:16:14;;;;;;;11.18;5.22;;;19.40;40.50;;;;;;6196925;28;20030;-68
2022/03/21 10:19:14;;;;;;;11.90;5.30;;;19.40;40.40;;;;;;6196488;28;20038;-68
2022/03/21 10:22:19;;;;;;;7.07;4.43;;;19.40;40.50;;;;;;6193545;28;20030;-68
2022/03/21 10:25:21;;;;;;;9.43;5.43;;;19.40;40.70;;;;;;6172187;28;20138;-68
2022/03/21 10:28:40;;;;;;;8.95;5.05;;;19.40;40.70;;;;;;6186779;28;20046;-69
2022/03/21 10:31:43;;;;;;;9.65;5.43;;;19.40;40.70;;;;;;6197488;28;20026;-68
2022/03/21 10:34:43;;;;;;;7.72;5.13;;;19.40;40.80;;;;;;6196282;28;20062;-68
2022/03/21 10:37:50;;;;;;;9.55;4.60;;;19.40;40.90;;;;;;6196454;28;20502;-68
2022/03/21 10:40:50;;;;;;;7.35;4.68;;;19.40;40.90;;;;;;6195906;28;20029;-68
2022/03/21 10:43:55;;;;;;;9.20;4.47;;;19.40;40.80;;;;;;6196063;28;20606;-68
2022/03/21 10:47:03;;;;;;;7.57;4.72;;;19.40;40.70;;;;;;6196080;28;20037;-68
2022/03/21 10:50:03;;;;;;;7.82;4.88;;;19.40;40.90;;;;;;6195629;28;20076;-68
2022/03/21 10:53:10;;;;;;;9.00;4.47;;;19.40;41.10;;;;;;6195953;28;20262;-67
2022/03/21 10:56:11;;;;;;;8.50;4.72;;;19.40;41.00;;;;;;6208246;28;20062;-68
2022/03/21 10:59:16;;;;;;;11.27;4.53;;;19.40;41.20;;;;;;6220961;28;20034;-68
2022/03/21 11:02:17;;;;;;;6.50;4.10;;;19.40;41.20;;;;;;6197103;28;20026;-68
2022/03/21 11:05:19;;;;;;;8.70;4.53;;;19.50;41.20;;;;;;6196931;28;20401;-68
2022/03/21 11:08:19;;;;;;;8.50;4.13;;;19.40;41.30;;;;;;6196955;28;20033;-68
2022/03/21 11:11:20;;;;;;;8.25;4.45;;;19.40;41.30;;;;;;6197678;28;20494;-68
2022/03/21 11:14:23;;;;;;;6.53;4.15;;;19.40;41.40;;;;;;6196943;28;20490;-68
2022/03/21 11:17:24;;;;;;;7.85;4.40;;;19.40;41.40;;;;;;6197214;28;20326;-68
2022/03/21 11:20:26;;;;;;;5.60;3.95;;;19.40;41.40;;;;;;6196654;28;20362;-69
2022/03/21 11:23:27;;;;;;;5.68;3.90;;;19.40;41.40;;;;;;6196632;28;20042;-69
2022/03/21 11:26:51;;;;;;;6.72;3.97;;;19.40;41.20;;;;;;6196110;28;20062;-68
2022/03/21 11:30:19;;;;;;;7.45;4.07;;;19.40;41.30;;;;;;6196140;28;20088;-68
2022/03/21 11:33:39;;;;;;;5.05;3.53;;;19.40;41.40;;;;;;6196778;28;20022;-68
2022/03/21 11:36:54;;;;;;;6.75;3.90;;;19.40;41.50;;;;;;6196030;28;20022;-68
2022/03/21 11:40:26;;;;;;;6.75;4.10;;;19.40;41.70;;;;;;6196227;28;20185;-68
2022/03/21 11:43:29;;;;;;;6.43;3.65;;;19.40;41.50;;;;;;6196267;28;20045;-68
2022/03/21 11:46:37;;;;;;;7.30;3.65;;;19.40;41.50;;;;;;6196419;28;20114;-68
2022/03/21 11:49:40;;;;;;;6.07;4.03;;;19.40;41.60;;;;;;6196123;28;20036;-68
2022/03/21 11:53:04;;;;;;;4.63;3.28;;;19.40;41.60;;;;;;6196550;28;20029;-68
2022/03/21 11:56:05;;;;;;;5.45;3.67;;;19.40;41.70;;;;;;6196305;28;20026;-68
2022/03/21 11:59:05;;;;;;;5.35;3.58;;;19.40;41.70;;;;;;6196158;28;20030;-68
2022/03/21 12:02:12;;;;;;;6.70;3.40;;;19.40;41.80;;;;;;6196067;28;20018;-68
2022/03/21 12:05:12;;;;;;;6.10;3.65;;;19.40;41.80;;;;;;6196025;28;20382;-68
2022/03/21 12:08:33;;;;;;;5.72;3.10;;;19.40;41.90;;;;;;6195864;28;20026;-68
2022/03/21 12:11:39;;;;;;;5.10;3.47;;;19.40;41.90;;;;;;6196211;28;20036;-68
2022/03/21 12:14:45;;;;;;;7.70;3.92;;;19.40;41.90;;;;;;6195680;28;20317;-68
2022/03/21 12:17:48;;;;;;;6.30;3.30;;;19.40;41.90;;;;;;6196010;28;20493;-68
2022/03/21 12:20:51;;;;;;;5.43;3.53;;;19.40;42.00;;;;;;6195701;28;20463;-68
2022/03/21 12:24:18;;;;;;;6.50;3.80;;;19.40;42.00;;;;;;6195779;28;20041;-68
2022/03/21 12:27:35;;;;;;;4.55;3.20;;;19.40;42.00;;;;;;6194912;28;20050;-68
2022/03/21 12:30:36;;;;;;;5.35;3.20;;;19.50;42.10;;;;;;6195386;28;20052;-68
2022/03/21 12:33:37;;;;;;;5.15;3.60;;;19.40;42.10;;;;;;6195632;28;20026;-68
2022/03/21 12:36:37;;;;;;;5.55;3.10;;;19.40;42.10;;;;;;6196044;28;20033;-68
2022/03/21 12:39:38;;;;;;;5.32;3.28;;;19.40;42.10;;;;;;6195337;28;20030;-68
2022/03/21 12:42:43;;;;;;;5.63;3.55;;;19.50;42.20;;;;;;6195664;28;20478;-68
2022/03/21 12:45:45;;;;;;;5.25;3.03;;;19.50;42.20;;;;;;6195513;28;20049;-68
2022/03/21 12:49:00;;;;;;;5.43;3.38;;;19.40;42.20;;;;;;6200080;28;20026;-68
2022/03/21 12:52:01;;;;;;;5.68;3.53;;;19.50;42.30;;;;;;6200295;28;20026;-68
2022/03/21 12:55:03;;;;;;;4.45;3.15;;;19.50;42.30;;;;;;6199045;28;20084;-68
2022/03/21 12:58:09;;;;;;;6.13;3.22;;;19.50;42.30;;;;;;6200256;28;20037;-68
2022/03/21 13:01:09;;;;;;;4.57;3.10;;;19.40;42.30;;;;;;6200368;28;20539;-68
2022/03/21 13:10:50;;;;;;;4.78;3.10;;;19.50;42.50;;;;;;6199415;28;20027;-68
2022/03/21 13:13:56;;;;;;;4.93;3.10;;;19.50;42.50;;;;;;6199994;28;20243;-68
2022/03/21 13:16:59;;;;;;;4.75;2.75;;;19.50;42.50;;;;;;6199210;28;20137;-68
2022/03/21 13:20:00;;;;;;;5.40;3.22;;;19.50;42.50;;;;;;6199388;28;20366;-68
2022/03/21 13:23:02;;;;;;;4.28;2.97;;;19.50;42.50;;;;;;6197910;28;20038;-68
2022/03/21 13:26:13;;;;;;;5.40;3.05;;;19.50;42.60;;;;;;6199332;28;20070;-68
2022/03/21 13:29:14;;;;;;;4.53;2.97;;;19.50;42.60;;;;;;6198469;28;20026;-68
2022/03/21 13:32:14;;;;;;;4.15;3.08;;;19.50;42.60;;;;;;6199247;28;20092;-68
2022/03/21 13:35:15;;;;;;;4.40;3.17;;;19.50;42.60;;;;;;6198791;28;20054;-68
2022/03/21 13:38:22;;;;;;;4.60;3.13;;;19.50;42.60;;;;;;6199534;28;20386;-68
2022/03/21 13:41:23;;;;;;;4.25;2.72;;;19.50;42.60;;;;;;6198821;28;20022;-68
2022/03/21 13:44:29;;;;;;;5.63;3.15;;;19.50;42.70;;;;;;6198618;28;20114;-68
2022/03/21 13:47:30;;;;;;;4.20;2.60;;;19.50;42.70;;;;;;6198979;28;20030;-68
2022/03/21 13:50:38;;;;;;;4.68;2.63;;;19.50;42.70;;;;;;6198648;28;20081;-67
2022/03/21 13:53:39;;;;;;;4.05;2.92;;;19.50;42.70;;;;;;6198842;28;20088;-68
2022/03/21 13:56:40;;;;;;;4.53;2.75;;;19.50;42.70;;;;;;6198285;28;20023;-68
2022/03/21 13:59:41;;;;;;;4.28;3.10;;;19.50;42.70;;;;;;6197403;28;20124;-68
2022/03/21 14:02:48;;;;;;;5.15;3.08;;;19.50;42.80;;;;;;6198389;28;20042;-68
2022/03/21 14:05:56;;;;;;;5.10;2.70;;;19.50;42.80;;;;;;6198469;28;20083;-68
2022/03/21 14:09:02;;;;;;;4.03;2.78;;;19.50;42.80;;;;;;6198620;28;20037;-68
2022/03/21 14:12:08;;;;;;;3.38;2.45;;;19.50;42.80;;;;;;6198079;28;20054;-69
2022/03/21 14:15:09;;;;;;;4.32;2.80;;;19.50;42.80;;;;;;6198263;28;20543;-69
2022/03/21 14:18:10;;;;;;;3.78;2.58;;;19.50;42.90;;;;;;6198204;28;20026;-68
2022/03/21 14:21:11;;;;;;;5.68;3.00;;;19.50;42.80;;;;;;6198081;28;20097;-68
2022/03/21 14:24:11;;;;;;;6.72;2.88;;;19.50;42.90;;;;;;6197438;28;20053;-68
2022/03/21 14:27:12;;;;;;;4.45;2.70;;;19.50;42.90;;;;;;6197483;28;20732;-68
2022/03/21 14:30:12;;;;;;;4.47;2.67;;;19.50;42.90;;;;;;6197517;28;20026;-68
2022/03/21 14:33:13;;;;;;;3.50;2.40;;;19.50;42.90;;;;;;6197881;28;20461;-68
2022/03/21 14:36:14;;;;;;;4.57;2.78;;;19.50;42.90;;;;;;6197053;28;20101;-68
2022/03/21 14:39:15;;;;;;;5.30;2.88;;;19.50;42.90;;;;;;6197851;28;20053;-68
2022/03/21 14:42:15;;;;;;;3.38;2.10;;;19.50;42.90;;;;;;6197690;28;20026;-68
2022/03/21 14:45:17;;;;;;;4.03;2.63;;;19.50;43.00;;;;;;6197755;28;20033;-68
2022/03/21 14:48:18;;;;;;;3.83;2.38;;;19.50;42.90;;;;;;6197099;28;20030;-68
2022/03/21 14:51:18;;;;;;;3.78;2.35;;;19.50;43.00;;;;;;6201787;28;20099;-69
2022/03/21 14:54:19;;;;;;;4.30;2.70;;;19.50;42.90;;;;;;6196816;28;20026;-68
2022/03/21 14:57:19;;;;;;;4.38;2.90;;;19.50;43.00;;;;;;6198031;28;20369;-68
2022/03/21 15:00:20;;;;;;;3.78;2.50;;;19.50;42.90;;;;;;6197155;28;20026;-68
2022/03/21 15:03:23;;;;;;;4.03;2.08;;;19.50;43.00;;;;;;6195861;28;20366;-68
2022/03/21 15:06:24;;;;;;;3.13;2.20;;;19.50;43.00;;;;;;6169232;28;20056;-68
2022/03/21 15:09:24;;;;;;;4.47;2.42;;;19.50;43.00;;;;;;6192994;28;20034;-68
2022/03/21 15:12:25;;;;;;;4.35;2.63;;;19.50;42.90;;;;;;6196401;28;20028;-68
2022/03/21 15:15:27;;;;;;;3.72;2.53;;;19.50;42.80;;;;;;6192984;28;20091;-68
2022/03/21 15:18:29;;;;;;;5.22;2.80;;;19.40;42.60;;;;;;6195548;28;20034;-68
2022/03/21 15:21:30;;;;;;;3.67;2.42;;;19.40;42.20;;;;;;6195250;28;20431;-68
2022/03/21 15:24:30;;;;;;;7.45;3.78;;;19.50;41.60;;;;;;6189137;28;20113;-68
2022/03/21 15:27:31;;;;;;;7.63;3.20;;;19.50;40.60;;;;;;6195565;28;20058;-68
2022/03/21 15:30:32;;;;;;;6.68;3.88;;;19.40;40.20;;;;;;6195590;28;20038;-69
2022/03/21 15:33:32;;;;;;;9.43;3.80;;;19.50;39.20;;;;;;6190035;28;20088;-68
2022/03/21 15:43:11;;;;;;;6.70;4.10;;;19.50;38.20;;;;;;6209416;28;20061;-68
2022/03/21 15:46:12;;;;;;;5.93;3.90;;;19.40;37.30;;;;;;6194738;28;20548;-68
2022/03/21 15:49:13;;;;;;;5.68;3.65;;;19.50;35.90;;;;;;6200442;28;20038;-68
2022/03/21 15:52:13;;;;;;;16.52;4.18;;;19.50;36.90;;;;;;6219541;28;20026;-68
2022/03/21 15:55:15;;;;;;;10.38;4.38;;;19.40;35.80;;;;;;6219379;28;20065;-67
2022/03/21 15:58:18;;;;;;;8.90;4.22;;;19.50;36.60;;;;;;6217341;28;20117;-68
2022/03/21 16:01:18;;;;;;;11.98;4.85;;;19.50;35.80;;;;;;6179406;28;20042;-68
2022/03/21 16:04:19;;;;;;;8.93;4.10;;;19.50;36.60;;;;;;6170647;28;20478;-68
2022/03/21 16:07:19;;;;;;;9.07;4.88;;;19.40;36.10;;;;;;6170629;28;20097;-68
2022/03/21 16:10:20;;;;;;;8.80;3.90;;;19.50;37.20;;;;;;6170663;28;20126;-68
2022/03/21 16:13:21;;;;;;;7.18;4.10;;;19.40;37.60;;;;;;6216101;28;20022;-68
2022/03/21 16:16:22;;;;;;;6.28;3.42;;;19.40;37.50;;;;;;6219192;28;20018;-69
2022/03/21 16:19:23;;;;;;;8.57;3.30;;;19.40;38.30;;;;;;6219156;28;20060;-68